Time;durP1;ratioP1;P1;durP2;ratioP2;P2;SDS_P1;SDS_P2;PMS_P1;PMS_P2;Temp;Humidity;BMP_temperature;BMP_pressure;BME280_temperature;BME280_humidity;BME280_pressure;Samples;Min_cycle;Max_cycle;Signal;HPM_P1;HPM_P2
2022/04/15 00:01:38;;;;;;;18.20;9.90;;;7.20;99.90;;;;;;4997631;28;20473;-76
2022/04/15 00:04:04;;;;;;;19.15;10.23;;;;;;;;;;5018138;28;21030;-76
2022/04/15 00:06:32;;;;;;;17.97;10.03;;;;;;;;;;5012705;28;21564;-75
2022/04/15 00:08:58;;;;;;;17.25;10.32;;;;;;;;;;5014132;28;20434;-75
2022/04/15 00:11:24;;;;;;;16.53;10.27;;;;;;;;;;5022179;28;20517;-75
2022/04/15 00:13:50;;;;;;;18.00;9.60;;;;;;;;;;5001013;28;20933;-75
2022/04/15 00:16:16;;;;;;;18.60;10.23;;;;;;;;;;4953918;28;20434;-75
2022/04/15 00:18:43;;;;;;;17.67;10.60;;;;;;;;;;5018502;28;20805;-75
2022/04/15 00:21:09;;;;;;;17.05;10.82;;;;;;;;;;5016552;28;20430;-76
2022/04/15 00:23:35;;;;;;;16.23;10.07;;;;;;;;;;4993831;28;20429;-76
2022/04/15 00:26:01;;;;;;;15.98;10.43;;;;;;;;;;5016114;28;21849;-76
2022/04/15 00:28:28;;;;;;;15.73;10.07;;;;;;;;;;5016646;28;20975;-75
2022/04/15 00:30:54;;;;;;;16.55;10.25;;;;;;;;;;5018029;28;20445;-76
2022/04/15 00:33:21;;;;;;;15.82;9.68;;;;;;;;;;5015818;28;20468;-76
2022/04/15 00:35:47;;;;;;;15.05;9.45;;;;;;;;;;4960470;28;20436;-75
2022/04/15 00:38:14;;;;;;;15.18;9.77;;;;;;;;;;5004108;28;20430;-77
2022/04/15 00:40:40;;;;;;;14.45;9.75;;;;;;;;;;5015864;28;20921;-76
2022/04/15 00:43:06;;;;;;;14.50;9.63;;;;;;;;;;5016609;28;20430;-76
2022/04/15 00:45:32;;;;;;;14.95;9.57;;;;;;;;;;5017210;28;21066;-76
2022/04/15 00:48:00;;;;;;;16.38;9.88;;;7.20;99.90;;;;;;5000997;28;20921;-76
2022/04/15 00:50:31;;;;;;;15.85;9.82;;;;;;;;;;5016198;28;20425;-76
2022/04/15 00:52:59;;;;;;;16.02;9.80;;;7.20;99.90;;;;;;5013064;28;20453;-76
2022/04/15 00:55:25;;;;;;;15.80;9.20;;;7.60;99.90;;;;;;4994034;28;20434;-75
2022/04/15 00:57:55;;;;;;;15.05;9.77;;;;;;;;;;5001495;28;21324;-76
2022/04/15 01:00:21;;;;;;;15.63;9.50;;;;;;;;;;5015300;28;20937;-75
2022/04/15 01:02:47;;;;;;;16.15;9.55;;;;;;;;;;5007336;28;20491;-75
2022/04/15 01:05:14;;;;;;;15.73;9.35;;;;;;;;;;4997351;28;20433;-76
2022/04/15 01:07:42;;;;;;;14.05;9.20;;;7.30;99.90;;;;;;5017052;28;20556;-76
2022/04/15 01:10:13;;;;;;;15.20;10.23;;;7.40;99.90;;;;;;5017119;28;20457;-75
2022/04/15 01:12:40;;;;;;;17.20;9.40;;;;;;;;;;5019354;28;20452;-74
2022/04/15 01:15:08;;;;;;;17.05;10.10;;;7.30;99.90;;;;;;5011191;28;20442;-76
2022/04/15 01:17:34;;;;;;;15.55;9.35;;;;;;;;;;4995205;28;20433;-76
2022/04/15 01:20:01;;;;;;;18.08;9.32;;;;;;;;;;5017425;28;20461;-76
2022/04/15 01:22:47;;;;;;;15.25;9.75;;;;;;;;;;4994041;28;20484;-76
2022/04/15 01:25:17;;;;;;;16.20;9.60;;;;;;;;;;5014990;28;20530;-76
2022/04/15 01:27:48;;;;;;;16.38;9.60;;;7.50;99.90;;;;;;5016545;28;20438;-75
2022/04/15 01:30:15;;;;;;;16.43;9.93;;;;;;;;;;5015795;28;20450;-76
2022/04/15 01:32:41;;;;;;;16.42;9.80;;;;;;;;;;5016543;28;20441;-75
2022/04/15 01:35:08;;;;;;;17.55;10.25;;;;;;;;;;5017595;28;20553;-75
2022/04/15 01:37:35;;;;;;;17.02;9.75;;;7.70;99.90;;;;;;5011635;28;20426;-75
2022/04/15 01:40:02;;;;;;;19.08;10.38;;;;;;;;;;5017411;28;20473;-76
2022/04/15 01:42:28;;;;;;;20.08;10.05;;;;;;;;;;5018350;28;20517;-75
2022/04/15 01:44:54;;;;;;;17.27;9.60;;;;;;;;;;5014230;28;20434;-75
2022/04/15 01:47:20;;;;;;;16.55;10.00;;;;;;;;;;5013187;28;20956;-76
2022/04/15 01:49:46;;;;;;;15.95;9.93;;;;;;;;;;4976355;28;20432;-76
2022/04/15 01:52:12;;;;;;;16.55;10.27;;;;;;;;;;5014033;28;20472;-76
2022/04/15 01:54:38;;;;;;;16.58;10.27;;;;;;;;;;5007550;28;20445;-76
2022/04/15 01:57:04;;;;;;;19.60;10.27;;;;;;;;;;5015605;28;20505;-76
2022/04/15 01:59:31;;;;;;;16.00;10.48;;;;;;;;;;5015568;28;20449;-76
2022/04/15 02:01:57;;;;;;;16.90;10.30;;;;;;;;;;5014770;28;20438;-76
2022/04/15 02:04:23;;;;;;;18.60;10.52;;;;;;;;;;5017150;28;20434;-76
2022/04/15 02:06:49;;;;;;;16.67;10.88;;;;;;;;;;5000066;28;20457;-76
2022/04/15 02:09:16;;;;;;;17.27;10.70;;;;;;;;;;5014246;28;20964;-74
2022/04/15 02:11:42;;;;;;;17.85;10.73;;;;;;;;;;5012872;28;20430;-76
2022/04/15 02:14:08;;;;;;;14.88;10.38;;;;;;;;;;4999285;28;20476;-76
2022/04/15 02:16:35;;;;;;;18.15;10.50;;;;;;;;;;5009733;28;20434;-75
2022/04/15 02:19:01;;;;;;;17.73;11.02;;;;;;;;;;5015347;28;20965;-76
2022/04/15 02:21:27;;;;;;;15.63;10.45;;;;;;;;;;5011744;28;20429;-75
2022/04/15 02:23:53;;;;;;;19.77;11.10;;;;;;;;;;4973178;28;20433;-76
2022/04/15 02:26:19;;;;;;;15.68;10.73;;;;;;;;;;5009566;28;20440;-75
2022/04/15 02:28:45;;;;;;;17.17;10.98;;;;;;;;;;5015386;28;20432;-76
2022/04/15 02:31:11;;;;;;;17.25;10.73;;;;;;;;;;5009189;28;20532;-75
2022/04/15 02:33:38;;;;;;;14.68;10.50;;;;;;;;;;5015869;28;20438;-74
2022/04/15 02:36:04;;;;;;;18.45;10.60;;;;;;;;;;5014600;28;20517;-75
2022/04/15 02:38:30;;;;;;;17.23;11.00;;;;;;;;;;4998163;28;20434;-76
2022/04/15 02:40:56;;;;;;;15.93;10.27;;;;;;;;;;5012668;28;20429;-76
2022/04/15 02:43:25;;;;;;;17.83;10.98;;;;;;;;;;5012789;28;20937;-75
2022/04/15 02:45:52;;;;;;;16.27;10.73;;;;;;;;;;5014144;28;20434;-75
2022/04/15 02:48:18;;;;;;;17.95;10.60;;;;;;;;;;5008055;28;20426;-76
2022/04/15 02:50:45;;;;;;;18.50;11.02;;;;;;;;;;5013677;28;20441;-75
2022/04/15 02:53:11;;;;;;;17.88;11.63;;;;;;;;;;5014624;28;20428;-75
2022/04/15 02:55:38;;;;;;;17.35;10.88;;;;;;;;;;4998649;28;20437;-76
2022/04/15 02:58:04;;;;;;;19.50;11.70;;;;;;;;;;5012550;28;20507;-75
2022/04/15 03:00:30;;;;;;;15.50;11.35;;;;;;;;;;5014478;28;20433;-76
2022/04/15 03:02:56;;;;;;;16.30;10.68;;;;;;;;;;4986611;28;20959;-76
2022/04/15 03:05:23;;;;;;;17.90;11.20;;;;;;;;;;4966745;28;20511;-76
2022/04/15 03:07:49;;;;;;;18.42;10.98;;;;;;;;;;5015590;28;20747;-75
2022/04/15 03:10:15;;;;;;;16.05;10.65;;;;;;;;;;5015291;28;20873;-76
2022/04/15 03:12:41;;;;;;;18.38;11.68;;;;;;;;;;4994205;28;22068;-76
2022/04/15 03:15:11;;;;;;;18.00;11.50;;;;;;;;;;4982126;28;20563;-76
2022/04/15 03:17:37;;;;;;;17.07;11.07;;;;;;;;;;4998051;28;20444;-75
2022/04/15 03:20:04;;;;;;;16.65;11.65;;;8.20;99.90;;;;;;4968828;28;20441;-75
2022/04/15 03:22:30;;;;;;;18.98;11.80;;;;;;;;;;4998437;28;20786;-76
2022/04/15 03:24:56;;;;;;;19.15;11.25;;;;;;;;;;4998974;28;20438;-76
2022/04/15 03:27:23;;;;;;;18.27;11.90;;;;;;;;;;5012252;28;20450;-76
2022/04/15 03:29:49;;;;;;;18.63;11.43;;;;;;;;;;4997728;28;20543;-76
2022/04/15 03:32:15;;;;;;;17.83;11.00;;;;;;;;;;5014632;28;20500;-76
2022/04/15 03:34:41;;;;;;;18.27;11.25;;;;;;;;;;4999023;28;20433;-76
2022/04/15 03:37:07;;;;;;;16.88;10.57;;;;;;;;;;5011060;28;20438;-76
2022/04/15 03:39:33;;;;;;;18.67;11.20;;;;;;;;;;5014805;28;20434;-76
2022/04/15 03:41:59;;;;;;;18.13;10.63;;;;;;;;;;5001715;28;20430;-76
2022/04/15 03:44:25;;;;;;;14.88;10.10;;;;;;;;;;5011682;28;20465;-76
2022/04/15 03:46:51;;;;;;;18.23;10.90;;;;;;;;;;5008572;28;20432;-76
2022/04/15 03:49:17;;;;;;;21.35;13.25;;;;;;;;;;4945587;28;20439;-76
2022/04/15 03:51:44;;;;;;;25.20;16.45;;;;;;;;;;4999291;28;20429;-76
2022/04/15 03:54:10;;;;;;;28.48;18.65;;;;;;;;;;5015510;28;20534;-76
2022/04/15 03:56:36;;;;;;;29.95;19.15;;;;;;;;;;4962220;28;20440;-76
2022/04/15 03:59:03;;;;;;;26.20;18.77;;;;;;;;;;4997181;28;20434;-76
2022/04/15 04:01:29;;;;;;;26.38;18.98;;;;;;;;;;5015119;28;20554;-76
2022/04/15 04:03:55;;;;;;;25.23;17.83;;;;;;;;;;4998703;28;20793;-76
2022/04/15 04:06:21;;;;;;;21.67;16.65;;;;;;;;;;4948243;28;20432;-76
2022/04/15 04:08:50;;;;;;;20.33;15.60;;;;;;;;;;4971613;28;21360;-76
2022/04/15 04:11:17;;;;;;;20.42;15.63;;;;;;;;;;5013115;28;20817;-75
2022/04/15 04:13:43;;;;;;;21.00;15.38;;;;;;;;;;5014297;28;20496;-76
2022/04/15 04:16:09;;;;;;;21.08;14.75;;;;;;;;;;5014706;28;20429;-76
2022/04/15 04:18:35;;;;;;;16.90;14.05;;;;;;;;;;5011866;28;21070;-76
2022/04/15 04:21:01;;;;;;;19.17;14.43;;;;;;;;;;5013197;28;20430;-76
2022/04/15 04:23:27;;;;;;;17.23;12.52;;;;;;;;;;5011678;28;20954;-76
2022/04/15 04:25:53;;;;;;;14.35;11.82;;;;;;;;;;5014938;28;20426;-76
2022/04/15 04:28:20;;;;;;;15.13;12.13;;;;;;;;;;5013761;28;20905;-76
2022/04/15 04:30:46;;;;;;;13.45;9.70;;;;;;;;;;5011569;28;20445;-76
2022/04/15 04:33:12;;;;;;;11.27;8.60;;;;;;;;;;4990602;28;20438;-75
2022/04/15 04:35:38;;;;;;;11.55;8.93;;;;;;;;;;5013946;28;20440;-75
2022/04/15 04:38:05;;;;;;;11.55;8.93;;;;;;;;;;5014007;28;20430;-76
2022/04/15 04:40:34;;;;;;;13.00;8.47;;;8.10;99.90;;;;;;5012665;28;20542;-76
2022/04/15 04:43:01;;;;;;;11.32;8.93;;;;;;;;;;5010860;28;20955;-76
2022/04/15 04:45:27;;;;;;;10.32;8.30;;;;;;;;;;5014141;28;20426;-76
2022/04/15 04:47:53;;;;;;;11.30;9.00;;;;;;;;;;4981105;28;20430;-76
2022/04/15 04:50:19;;;;;;;12.00;8.55;;;;;;;;;;5010902;28;20599;-76
2022/04/15 04:52:47;;;;;;;11.20;8.50;;;;;;;;;;5015558;28;20495;-76
2022/04/15 04:55:13;;;;;;;11.85;8.68;;;;;;;;;;5009525;28;21919;-76
2022/04/15 04:57:42;;;;;;;11.25;8.50;;;;;;;;;;5015667;28;20527;-75
2022/04/15 05:00:08;;;;;;;14.23;8.80;;;;;;;;;;5016636;28;20762;-76
2022/04/15 05:02:34;;;;;;;11.27;8.82;;;;;;;;;;4965506;28;21024;-75
2022/04/15 05:05:00;;;;;;;11.95;8.15;;;;;;;;;;5010781;28;22014;-75
2022/04/15 05:07:26;;;;;;;10.93;8.30;;;;;;;;;;4992852;28;20465;-75
2022/04/15 05:09:53;;;;;;;10.43;7.70;;;;;;;;;;4987099;28;20945;-75
2022/04/15 05:12:19;;;;;;;11.73;7.47;;;;;;;;;;5016181;28;20442;-75
2022/04/15 05:14:45;;;;;;;8.43;6.90;;;;;;;;;;5018099;28;20460;-75
2022/04/15 05:17:11;;;;;;;9.60;6.97;;;;;;;;;;4998973;28;20446;-75
2022/04/15 05:19:37;;;;;;;8.05;6.50;;;;;;;;;;5001418;28;20461;-75
2022/04/15 05:22:03;;;;;;;10.50;6.82;;;;;;;;;;5005123;28;20454;-75
2022/04/15 05:24:30;;;;;;;9.15;7.05;;;;;;;;;;4995788;28;20431;-75
2022/04/15 05:26:56;;;;;;;16.98;7.22;;;;;;;;;;4939510;28;20837;-75
2022/04/15 05:29:22;;;;;;;9.90;7.00;;;;;;;;;;4999696;28;20517;-73
2022/04/15 05:31:48;;;;;;;8.82;6.32;;;;;;;;;;5012079;28;20917;-73
2022/04/15 05:34:14;;;;;;;8.30;6.18;;;;;;;;;;4973709;28;20430;-75
2022/04/15 05:36:40;;;;;;;6.97;5.90;;;;;;;;;;4997100;28;20495;-75
2022/04/15 05:39:06;;;;;;;9.88;6.25;;;;;;;;;;5013313;28;20437;-75
2022/04/15 05:41:32;;;;;;;7.50;5.82;;;;;;;;;;5017427;28;20817;-76
2022/04/15 05:43:58;;;;;;;7.75;5.70;;;;;;;;;;5010361;28;20445;-77
2022/04/15 05:46:27;;;;;;;8.15;5.35;;;;;;;;;;4993887;28;20434;-80
2022/04/15 05:48:53;;;;;;;6.70;4.88;;;;;;;;;;5000005;28;20437;-79
2022/04/15 05:51:19;;;;;;;7.88;4.85;;;;;;;;;;4912961;28;20442;-76
2022/04/15 05:53:46;;;;;;;7.63;4.60;;;;;;;;;;5011808;28;20449;-76
2022/04/15 05:56:12;;;;;;;7.83;4.73;;;;;;;;;;4994443;28;20514;-76
2022/04/15 05:58:40;;;;;;;9.32;5.20;;;;;;;;;;5012862;28;20948;-77
2022/04/15 06:01:09;;;;;;;8.27;5.40;;;;;;;;;;5014357;28;20790;-74
2022/04/15 06:03:35;;;;;;;6.70;5.05;;;;;;;;;;4996771;28;20438;-77
2022/04/15 06:06:02;;;;;;;7.82;4.85;;;7.90;99.90;;;;;;4999066;28;20429;-78
2022/04/15 06:08:28;;;;;;;7.60;4.97;;;;;;;;;;5014825;28;20418;-78
2022/04/15 06:10:54;;;;;;;11.07;5.20;;;;;;;;;;5004893;28;20445;-78
2022/04/15 06:13:22;;;;;;;8.73;5.00;;;;;;;;;;4995734;28;20956;-78
2022/04/15 06:15:56;;;;;;;8.77;5.80;;;;;;;;;;4999093;28;20433;-78
2022/04/15 06:18:24;;;;;;;8.48;5.80;;;;;;;;;;4981374;28;20436;-77
2022/04/15 06:20:50;;;;;;;9.35;6.05;;;;;;;;;;5013449;28;20438;-78
2022/04/15 06:23:16;;;;;;;8.27;6.10;;;;;;;;;;5014442;28;20936;-78
2022/04/15 06:25:43;;;;;;;9.50;6.40;;;7.90;99.90;;;;;;5016714;28;20422;-79
2022/04/15 06:28:10;;;;;;;9.90;6.10;;;;;;;;;;4996212;28;20457;-76
2022/04/15 06:30:36;;;;;;;8.25;6.18;;;;;;;;;;5013415;28;20430;-76
2022/04/15 06:33:05;;;;;;;9.02;6.32;;;8.00;99.90;;;;;;4952957;28;20434;-77
2022/04/15 06:35:32;;;;;;;8.38;6.43;;;;;;;;;;5004312;28;20783;-77
2022/04/15 06:37:58;;;;;;;8.93;6.90;;;;;;;;;;5016578;28;20492;-76
2022/04/15 06:40:24;;;;;;;9.77;6.90;;;;;;;;;;5017452;28;20929;-79
2022/04/15 06:42:50;;;;;;;11.43;7.18;;;;;;;;;;5013025;28;20797;-78
2022/04/15 06:45:16;;;;;;;9.55;7.72;;;;;;;;;;4990392;28;20426;-78
2022/04/15 06:47:42;;;;;;;11.70;8.23;;;;;;;;;;4995474;28;20436;-78
2022/04/15 06:50:08;;;;;;;12.77;8.07;;;;;;;;;;5008614;28;20503;-78
2022/04/15 06:52:35;;;;;;;12.93;8.45;;;;;;;;;;4993078;28;20437;-80
2022/04/15 06:55:01;;;;;;;11.93;8.52;;;;;;;;;;4988890;28;20434;-79
2022/04/15 06:57:27;;;;;;;13.20;8.65;;;;;;;;;;4989874;28;20489;-78
2022/04/15 06:59:53;;;;;;;12.18;8.60;;;;;;;;;;4990272;28;20449;-77
2022/04/15 07:02:19;;;;;;;11.30;8.80;;;;;;;;;;4996057;28;20441;-77
2022/04/15 07:04:45;;;;;;;13.25;8.50;;;;;;;;;;4999473;28;20434;-78
2022/04/15 07:07:11;;;;;;;11.82;8.70;;;;;;;;;;4978584;28;20945;-75
2022/04/15 07:09:37;;;;;;;13.07;8.82;;;;;;;;;;5015547;28;20449;-76
2022/04/15 07:12:04;;;;;;;12.00;8.88;;;;;;;;;;4994802;28;20433;-77
2022/04/15 07:14:32;;;;;;;14.50;9.30;;;;;;;;;;4998332;28;20429;-78
2022/04/15 07:16:59;;;;;;;12.80;9.02;;;;;;;;;;4998332;28;20436;-77
2022/04/15 07:19:27;;;;;;;13.02;9.60;;;;;;;;;;5021440;28;20439;-77
2022/04/15 07:21:53;;;;;;;15.93;10.77;;;;;;;;;;5001366;28;20933;-79
2022/04/15 07:24:20;;;;;;;15.48;11.35;;;;;;;;;;5000688;28;20443;-79
2022/04/15 07:26:46;;;;;;;16.52;11.23;;;;;;;;;;4998702;28;20430;-78
2022/04/15 07:29:12;;;;;;;15.32;10.82;;;;;;;;;;4930113;28;20790;-77
2022/04/15 07:31:40;;;;;;;16.65;11.50;;;;;;;;;;5006707;28;20441;-78
2022/04/15 07:34:06;;;;;;;19.85;11.60;;;;;;;;;;5008146;28;20438;-77
2022/04/15 07:39:11;;;;;;;16.02;11.73;;;;;;;;;;5019311;28;20833;-78
2022/04/15 07:41:38;;;;;;;16.48;11.63;;;8.50;99.90;;;;;;4989739;28;20459;-78
2022/04/15 07:44:08;;;;;;;18.13;11.80;;;8.70;99.90;;;;;;5007296;28;20477;-78
2022/04/15 07:46:35;;;;;;;16.70;11.82;;;;;;;;;;5011021;28;20445;-79
2022/04/15 07:49:01;;;;;;;16.08;11.50;;;;;;;;;;5002066;28;20445;-78
2022/04/15 07:51:27;;;;;;;16.80;11.55;;;;;;;;;;4993253;28;20426;-79
2022/04/15 07:53:53;;;;;;;17.63;12.02;;;;;;;;;;4922947;28;20453;-78
2022/04/15 07:56:20;;;;;;;18.60;12.25;;;;;;;;;;4926342;28;20454;-78
2022/04/15 07:58:46;;;;;;;20.13;11.80;;;;;;;;;;5008627;28;20516;-78
2022/04/15 08:01:12;;;;;;;21.50;12.07;;;;;;;;;;5008211;28;20448;-76
2022/04/15 08:03:39;;;;;;;21.02;11.70;;;;;;;;;;5010904;28;20495;-75
2022/04/15 08:06:06;;;;;;;19.73;11.82;;;;;;;;;;5008434;28;20432;-78
2022/04/15 08:08:32;;;;;;;19.50;11.95;;;;;;;;;;5005158;28;20519;-78
2022/04/15 08:10:58;;;;;;;16.33;11.30;;;;;;;;;;4977295;28;20469;-77
2022/04/15 08:13:27;;;;;;;18.10;11.90;;;;;;;;;;5006331;28;20437;-79
2022/04/15 08:15:54;;;;;;;18.50;11.43;;;9.50;99.90;;;;;;5009264;28;20433;-78
2022/04/15 08:18:21;;;;;;;17.63;11.65;;;;;;;;;;5009771;28;20468;-78
2022/04/15 08:20:47;;;;;;;17.98;11.52;;;;;;;;;;5003827;28;20438;-75
2022/04/15 08:23:13;;;;;;;15.65;10.50;;;;;;;;;;4988114;28;20434;-78
2022/04/15 08:25:39;;;;;;;18.00;10.50;;;;;;;;;;5009648;28;20426;-78
2022/04/15 08:28:06;;;;;;;14.52;10.45;;;9.70;99.90;;;;;;4925562;28;20473;-78
2022/04/15 08:30:35;;;;;;;17.40;9.65;;;;;;;;;;4999656;28;20519;-77
2022/04/15 08:33:02;;;;;;;17.08;10.13;;;;;;;;;;5013584;28;20437;-79
2022/04/15 08:35:29;;;;;;;14.75;9.07;;;;;;;;;;4927670;28;20918;-79
2022/04/15 08:37:55;;;;;;;12.20;7.93;;;;;;;;;;4994243;28;20538;-79
2022/04/15 08:40:21;;;;;;;9.88;6.65;;;;;;;;;;4997476;28;20441;-79
2022/04/15 08:42:47;;;;;;;9.10;5.80;;;;;;;;;;5012504;28;20997;-79
2022/04/15 08:45:13;;;;;;;7.53;5.35;;;;;;;;;;5014468;28;20491;-79
2022/04/15 08:47:41;;;;;;;7.55;5.43;;;;;;;;;;4997497;28;20430;-79
2022/04/15 08:50:10;;;;;;;8.52;5.68;;;;;;;;;;5002882;28;20438;-79
2022/04/15 08:52:36;;;;;;;12.00;4.83;;;;;;;;;;5003462;28;20443;-78
2022/04/15 08:55:03;;;;;;;9.02;5.32;;;;;;;;;;4980578;28;20584;-79
2022/04/15 08:57:29;;;;;;;7.93;4.93;;;;;;;;;;4932657;28;20453;-78
2022/04/15 08:59:55;;;;;;;9.93;5.90;;;;;;;;;;5007711;28;21912;-78
2022/04/15 09:02:32;;;;;;;8.77;5.05;;;;;;;;;;5012981;28;20437;-79
2022/04/15 09:04:59;;;;;;;9.70;5.20;;;;;;;;;;5000132;28;20974;-78
2022/04/15 09:07:31;;;;;;;8.83;5.27;;;;;;;;;;4990468;28;20429;-78
2022/04/15 09:09:59;;;;;;;10.07;5.38;;;;;;;;;;5012591;28;20438;-78
2022/04/15 09:12:27;;;;;;;9.60;6.15;;;11.30;99.90;;;;;;5001871;28;20449;-78
2022/04/15 09:15:11;;;;;;;14.65;7.15;;;;;;;;;;4999373;28;20432;-79
2022/04/15 09:17:42;;;;;;;14.45;7.30;;;;;;;;;;4979158;28;20434;-78
2022/04/15 09:20:09;;;;;;;11.95;6.85;;;;;;;;;;5014089;28;20433;-78
2022/04/15 09:22:36;;;;;;;10.13;6.90;;;;;;;;;;4996195;28;20430;-78
2022/04/15 09:25:02;;;;;;;10.80;6.37;;;;;;;;;;4946716;28;20475;-78
2022/04/15 09:27:29;;;;;;;9.82;6.10;;;;;;;;;;5012011;28;20445;-78
2022/04/15 09:29:55;;;;;;;8.93;5.53;;;;;;;;;;5013867;28;20429;-78
2022/04/15 09:32:22;;;;;;;10.15;5.88;;;11.60;99.90;;;;;;5007298;28;20418;-78
2022/04/15 09:34:57;;;;;;;9.73;6.00;;;;;;;;;;4967548;28;20539;-78
2022/04/15 09:37:31;;;;;;;10.35;6.15;;;11.30;99.90;;;;;;5009784;28;20456;-77
2022/04/15 09:40:14;;;;;;;8.43;5.60;;;;;;;;;;4994816;28;20929;-78
2022/04/15 09:42:45;;;;;;;11.75;6.18;;;;;;;;;;5008908;28;20429;-78
2022/04/15 09:45:11;;;;;;;9.02;6.15;;;;;;;;;;5004334;28;20472;-79
2022/04/15 09:47:37;;;;;;;8.73;5.18;;;;;;;;;;4982842;28;20465;-76
2022/04/15 09:50:06;;;;;;;10.80;5.32;;;;;;;;;;5013983;28;20438;-79
2022/04/15 09:52:32;;;;;;;9.38;5.38;;;;;;;;;;4997581;28;20486;-78
2022/04/15 09:55:04;;;;;;;9.10;5.75;;;12.20;99.90;;;;;;5009880;28;20520;-79
2022/04/15 09:57:34;;;;;;;10.23;5.53;;;12.00;99.90;;;;;;5028115;28;20423;-79
2022/04/15 10:00:03;;;;;;;9.85;6.13;;;;;;;;;;5027196;28;20435;-79
2022/04/15 10:02:29;;;;;;;8.73;4.97;;;;;;;;;;5008445;28;20457;-75
2022/04/15 10:04:56;;;;;;;9.60;5.18;;;;;;;;;;5019841;28;20922;-75
2022/04/15 10:07:22;;;;;;;7.57;4.78;;;;;;;;;;5022229;28;20453;-76
2022/04/15 10:09:48;;;;;;;9.07;5.20;;;;;;;;;;5009160;28;20429;-76
2022/04/15 10:12:14;;;;;;;8.60;5.75;;;;;;;;;;5024403;28;20491;-76
2022/04/15 10:14:41;;;;;;;8.00;4.47;;;;;;;;;;5016322;28;20451;-76
2022/04/15 10:17:07;;;;;;;9.30;4.65;;;;;;;;;;5020858;28;20525;-76
2022/04/15 10:19:34;;;;;;;7.85;4.68;;;;;;;;;;5022978;28;20465;-77
2022/04/15 10:22:01;;;;;;;9.40;5.95;;;;;;;;;;5024993;28;20435;-76
2022/04/15 10:24:27;;;;;;;9.23;5.83;;;;;;;;;;5008674;28;20419;-79
2022/04/15 10:26:59;;;;;;;8.95;5.78;;;12.60;99.90;;;;;;5011083;28;20426;-79
2022/04/15 10:29:25;;;;;;;9.73;5.65;;;;;;;;;;5026428;28;20433;-79
2022/04/15 10:31:54;;;;;;;11.27;6.10;;;12.60;99.90;;;;;;5024442;28;20428;-79
2022/04/15 10:34:21;;;;;;;8.55;5.18;;;;;;;;;;5025304;28;20427;-80
2022/04/15 10:36:51;;;;;;;9.32;5.40;;;;;;;;;;5007980;28;20488;-79
2022/04/15 10:39:24;;;;;;;9.65;5.80;;;;;;;;;;5018544;28;20432;-79
2022/04/15 10:41:54;;;;;;;10.98;6.35;;;;;;;;;;5008810;28;20468;-79
2022/04/15 10:44:27;;;;;;;11.07;6.20;;;13.00;99.90;;;;;;5009492;28;20953;-79
2022/04/15 10:47:03;;;;;;;11.30;6.20;;;12.90;99.90;;;;;;5005375;28;20481;-79
2022/04/15 10:49:30;;;;;;;9.00;5.75;;;;;;;;;;5004858;28;20421;-79
2022/04/15 10:52:21;;;;;;;8.60;5.60;;;12.70;99.90;;;;;;5021331;28;20435;-78
2022/04/15 10:54:51;;;;;;;9.40;5.80;;;13.00;99.90;;;;;;5038242;28;20479;-79
2022/04/15 10:57:18;;;;;;;9.40;5.77;;;13.00;99.90;;;;;;5024737;28;20431;-79
2022/04/15 11:02:56;;;;;;;8.65;5.70;;;;;;;;;;5023009;28;21385;-79
2022/04/15 11:05:36;;;;;;;7.37;5.10;;;;;;;;;;5008950;28;20522;-79
2022/04/15 11:08:07;;;;;;;8.15;5.38;;;;;;;;;;5007743;28;20988;-79
2022/04/15 11:10:51;;;;;;;8.40;5.47;;;;;;;;;;5023740;28;20744;-79
2022/04/15 11:13:29;;;;;;;9.30;5.68;;;;;;;;;;5022038;28;20484;-80
2022/04/15 11:15:58;;;;;;;9.30;5.77;;;;;;;;;;5002540;28;20438;-79
2022/04/15 11:18:48;;;;;;;10.05;5.85;;;;;;;;;;5020227;28;20933;-79
2022/04/15 11:21:18;;;;;;;10.27;6.32;;;;;;;;;;5012178;28;20435;-79
2022/04/15 11:23:51;;;;;;;9.03;6.03;;;;;;;;;;5008860;28;21099;-78
2022/04/15 11:26:18;;;;;;;8.90;6.03;;;;;;;;;;5023385;28;20822;-79
2022/04/15 11:28:45;;;;;;;11.07;6.50;;;;;;;;;;5027067;28;20426;-79
2022/04/15 11:31:22;;;;;;;10.30;6.70;;;;;;;;;;5020868;28;20983;-78
2022/04/15 11:33:48;;;;;;;10.32;6.30;;;;;;;;;;5023750;28;20430;-79
2022/04/15 11:36:14;;;;;;;10.07;6.50;;;;;;;;;;5001771;28;20445;-79
2022/04/15 11:38:41;;;;;;;9.00;6.25;;;;;;;;;;5017501;28;20423;-79
2022/04/15 11:41:07;;;;;;;10.70;6.33;;;;;;;;;;5027424;28;20545;-79
2022/04/15 11:43:33;;;;;;;10.18;6.18;;;;;;;;;;5029864;28;20502;-78
2022/04/15 11:45:59;;;;;;;10.75;6.22;;;;;;;;;;5036014;28;20419;-79
2022/04/15 11:48:26;;;;;;;8.60;6.10;;;;;;;;;;4991392;28;20479;-77
2022/04/15 11:50:54;;;;;;;10.95;5.82;;;;;;;;;;5007425;28;20924;-77
2022/04/15 11:53:20;;;;;;;10.43;5.53;;;;;;;;;;5008748;28;20438;-79
2022/04/15 11:55:58;;;;;;;8.43;5.65;;;;;;;;;;4963336;28;20473;-78
2022/04/15 11:58:25;;;;;;;9.57;5.90;;;;;;;;;;4947255;28;20430;-77
2022/04/15 12:00:55;;;;;;;9.80;5.93;;;;;;;;;;4943214;28;20474;-79
2022/04/15 12:03:21;;;;;;;11.07;6.28;;;;;;;;;;4947583;28;20441;-78
2022/04/15 12:05:48;;;;;;;11.63;6.55;;;12.70;99.90;;;;;;4947515;28;20476;-79
2022/04/15 12:08:15;;;;;;;9.50;6.30;;;;;;;;;;4983509;28;20439;-79
2022/04/15 12:10:41;;;;;;;11.55;6.50;;;;;;;;;;4965148;28;20430;-80
2022/04/15 12:13:08;;;;;;;13.40;6.40;;;;;;;;;;5015359;28;20442;-78
2022/04/15 12:15:34;;;;;;;11.55;6.63;;;;;;;;;;5017393;28;20436;-79
2022/04/15 12:18:01;;;;;;;9.88;6.32;;;;;;;;;;4946266;28;20434;-75
2022/04/15 12:20:29;;;;;;;10.55;6.72;;;;;;;;;;5010065;28;21052;-74
2022/04/15 12:22:56;;;;;;;10.82;6.60;;;;;;;;;;5010432;28;20514;-77
2022/04/15 12:25:23;;;;;;;11.10;6.30;;;;;;;;;;5010739;28;20442;-75
2022/04/15 12:27:49;;;;;;;10.63;6.70;;;;;;;;;;5005835;28;20432;-75
2022/04/15 12:30:34;;;;;;;10.15;6.55;;;;;;;;;;5011800;28;20444;-75
2022/04/15 12:33:07;;;;;;;11.43;6.65;;;;;;;;;;4951388;28;20426;-78
2022/04/15 12:35:35;;;;;;;8.65;6.35;;;;;;;;;;4948368;28;20433;-75
2022/04/15 12:38:01;;;;;;;9.10;6.38;;;;;;;;;;4999549;28;20436;-75
2022/04/15 12:40:32;;;;;;;11.38;6.80;;;;;;;;;;5012346;28;20554;-78
2022/04/15 12:43:12;;;;;;;10.15;6.72;;;;;;;;;;4947379;28;20505;-78
2022/04/15 12:45:48;;;;;;;10.93;6.40;;;;;;;;;;5012712;28;20990;-76
2022/04/15 12:48:14;;;;;;;9.00;5.75;;;;;;;;;;4946516;28;20491;-77
2022/04/15 12:50:41;;;;;;;8.90;5.82;;;;;;;;;;5014137;28;20437;-77
2022/04/15 12:53:29;;;;;;;8.57;5.80;;;;;;;;;;5009283;28;20452;-78
2022/04/15 12:56:07;;;;;;;9.68;6.25;;;;;;;;;;5009165;28;20434;-78
2022/04/15 12:58:34;;;;;;;12.65;6.50;;;;;;;;;;5013429;28;20438;-78
2022/04/15 13:01:00;;;;;;;8.73;5.88;;;;;;;;;;4958777;28;20958;-77
2022/04/15 13:03:31;;;;;;;8.63;5.80;;;12.30;99.90;;;;;;4949555;28;20589;-78
2022/04/15 13:05:59;;;;;;;8.97;5.50;;;;;;;;;;4994022;28;20532;-78
2022/04/15 13:08:25;;;;;;;9.27;5.97;;;;;;;;;;5012573;28;20418;-78
2022/04/15 13:10:52;;;;;;;10.15;6.20;;;;;;;;;;4955849;28;20438;-78
2022/04/15 13:13:21;;;;;;;11.10;6.67;;;;;;;;;;4953560;28;20486;-79
2022/04/15 13:15:48;;;;;;;12.60;6.70;;;;;;;;;;5017472;28;20557;-79
2022/04/15 13:18:15;;;;;;;11.18;6.60;;;;;;;;;;5016352;28;20583;-79
2022/04/15 13:20:43;;;;;;;9.98;6.20;;;;;;;;;;5012532;28;20455;-76
2022/04/15 13:23:10;;;;;;;9.57;6.05;;;;;;;;;;5010824;28;20457;-76
2022/04/15 13:25:36;;;;;;;10.05;6.93;;;;;;;;;;4951717;28;20437;-76
2022/04/15 13:28:02;;;;;;;13.65;9.45;;;;;;;;;;5017235;28;20430;-76
2022/04/15 13:30:28;;;;;;;10.25;6.63;;;;;;;;;;4991216;28;20501;-77
2022/04/15 13:32:55;;;;;;;10.00;6.28;;;;;;;;;;5011425;28;20516;-76
2022/04/15 13:35:21;;;;;;;12.18;6.93;;;;;;;;;;5013159;28;20503;-76
2022/04/15 13:37:48;;;;;;;12.95;6.72;;;;;;;;;;5009179;28;20429;-76
2022/04/15 13:40:14;;;;;;;12.05;6.35;;;;;;;;;;4992927;28;20453;-75
2022/04/15 13:42:40;;;;;;;12.10;6.30;;;;;;;;;;4945913;28;20542;-75
2022/04/15 13:45:06;;;;;;;10.65;6.32;;;;;;;;;;4947187;28;20442;-75
2022/04/15 13:47:32;;;;;;;10.68;7.15;;;;;;;;;;5008634;28;20413;-74
2022/04/15 13:50:00;;;;;;;12.05;7.13;;;;;;;;;;4940504;28;20433;-75
2022/04/15 13:57:55;;;;;;;10.13;6.40;;;;;;;;;;4949634;28;20430;-74
2022/04/15 14:00:21;;;;;;;10.40;6.90;;;;;;;;;;5004348;28;20503;-74
2022/04/15 14:02:47;;;;;;;11.57;7.07;;;;;;;;;;4945459;28;20917;-75
2022/04/15 14:05:14;;;;;;;10.48;7.38;;;;;;;;;;4945123;28;20445;-75
2022/04/15 14:07:40;;;;;;;11.10;7.53;;;;;;;;;;4980782;28;20462;-75
2022/04/15 14:10:06;;;;;;;12.15;7.30;;;;;;;;;;5012969;28;20437;-74
2022/04/15 14:12:34;;;;;;;10.30;7.32;;;;;;;;;;5011276;28;20988;-74
2022/04/15 14:15:01;;;;;;;10.60;6.90;;;;;;;;;;4948308;28;20579;-75
2022/04/15 14:17:27;;;;;;;10.70;7.15;;;;;;;;;;5015660;28;20452;-74
2022/04/15 14:19:53;;;;;;;10.82;6.90;;;;;;;;;;4950287;28;20426;-74
2022/04/15 14:22:20;;;;;;;10.18;6.88;;;;;;;;;;4946912;28;20430;-75
2022/04/15 14:24:46;;;;;;;9.57;6.90;;;;;;;;;;4993751;28;20793;-74
2022/04/15 14:27:12;;;;;;;10.80;7.45;;;;;;;;;;4949153;28;20501;-75
2022/04/15 14:29:39;;;;;;;9.95;6.70;;;;;;;;;;5014436;28;20437;-75
2022/04/15 14:32:06;;;;;;;9.47;6.57;;;;;;;;;;4997931;28;20552;-75